createdAt,value
2018-12-17T00:00:47.022Z,11.83
2018-12-17T00:03:14.525Z,11.43
2018-12-17T00:05:42.095Z,14.63
2018-12-17T00:08:09.586Z,12.90
2018-12-17T00:10:37.063Z,11.43
2018-12-17T00:13:05.527Z,14.13
2018-12-17T00:15:33.297Z,10.93
2018-12-17T00:18:01.162Z,12.70
2018-12-17T00:20:28.593Z,9.53
2018-12-17T00:22:56.033Z,9.53
2018-12-17T00:25:23.497Z,10.40
2018-12-17T00:27:50.982Z,10.87
2018-12-17T00:30:18.450Z,12.60
2018-12-17T00:32:45.920Z,11.43
2018-12-17T00:35:13.394Z,13.30
2018-12-17T00:37:41.370Z,14.13
2018-12-17T00:40:08.912Z,10.23
2018-12-17T00:42:36.361Z,14.67
2018-12-17T00:45:05.007Z,10.40
2018-12-17T00:47:32.476Z,11.03
2018-12-17T00:49:59.964Z,12.83
2018-12-17T00:52:27.453Z,12.33
2018-12-17T00:54:54.904Z,9.67
2018-12-17T00:57:22.357Z,10.20
2018-12-17T00:59:49.817Z,12.47
2018-12-17T01:02:17.263Z,11.67
2018-12-17T01:04:44.852Z,11.10
2018-12-17T01:07:12.337Z,10.90
2018-12-17T01:09:39.832Z,11.63
2018-12-17T01:12:07.304Z,10.10
2018-12-17T01:14:34.771Z,10.63
2018-12-17T01:17:02.241Z,9.90
2018-12-17T01:19:29.706Z,10.00
2018-12-17T01:21:57.180Z,9.70
2018-12-17T01:24:24.639Z,9.10
2018-12-17T01:26:52.090Z,10.43
2018-12-17T01:29:19.546Z,8.97
2018-12-17T01:31:47.022Z,9.13
2018-12-17T01:34:14.487Z,11.37
2018-12-17T01:36:41.965Z,10.03
2018-12-17T01:39:09.433Z,10.63
2018-12-17T01:41:36.952Z,8.53
2018-12-17T01:44:04.441Z,8.33
2018-12-17T01:46:31.966Z,8.10
2018-12-17T01:48:59.559Z,9.07
2018-12-17T01:51:27.029Z,9.23
2018-12-17T01:53:54.691Z,9.47
2018-12-17T01:56:22.136Z,9.93
2018-12-17T01:58:49.598Z,9.07
2018-12-17T02:01:17.560Z,11.50
2018-12-17T02:03:45.244Z,9.37
2018-12-17T02:06:12.728Z,10.10
2018-12-17T02:08:40.261Z,8.93
2018-12-17T02:11:07.774Z,9.87
2018-12-17T02:13:35.225Z,10.53
2018-12-17T02:16:02.686Z,9.17
2018-12-17T02:18:30.130Z,9.13
2018-12-17T02:20:57.590Z,7.77
2018-12-17T02:23:25.046Z,9.63
2018-12-17T02:25:52.584Z,9.80
2018-12-17T02:28:20.066Z,12.40
2018-12-17T02:30:47.517Z,10.70
2018-12-17T02:33:15.006Z,15.73
2018-12-17T02:35:42.848Z,15.57
2018-12-17T02:38:10.291Z,15.30
2018-12-17T02:40:37.744Z,12.23
2018-12-17T02:43:05.185Z,13.80
2018-12-17T02:45:32.632Z,13.10
2018-12-17T02:48:00.087Z,17.60
2018-12-17T02:50:27.544Z,15.33
2018-12-17T02:52:55.010Z,27.47
2018-12-17T02:55:22.479Z,19.40
2018-12-17T02:57:49.926Z,15.43
2018-12-17T03:00:17.763Z,15.40
2018-12-17T03:02:45.218Z,18.33
2018-12-17T03:05:12.807Z,14.73
2018-12-17T03:07:40.257Z,18.50
2018-12-17T03:10:07.885Z,24.20
2018-12-17T03:12:35.340Z,20.03
2018-12-17T03:15:02.916Z,22.47
2018-12-17T03:17:30.356Z,15.27
2018-12-17T03:19:57.839Z,17.13
2018-12-17T03:22:25.339Z,18.07
2018-12-17T03:24:52.800Z,19.40
2018-12-17T03:27:20.278Z,17.40
2018-12-17T03:29:47.728Z,15.57
2018-12-17T03:32:15.189Z,25.33
2018-12-17T03:34:42.736Z,21.00
2018-12-17T03:37:10.214Z,19.10
2018-12-17T03:39:37.685Z,23.20
2018-12-17T03:42:05.278Z,17.43
2018-12-17T03:44:32.747Z,18.73
2018-12-17T03:47:00.187Z,21.90
2018-12-17T03:49:27.665Z,18.27
2018-12-17T03:51:55.157Z,25.10
2018-12-17T03:54:22.626Z,17.60
2018-12-17T03:56:50.080Z,24.33
2018-12-17T03:59:17.581Z,17.10
2018-12-17T04:01:45.448Z,17.07
2018-12-17T04:04:12.917Z,24.33
2018-12-17T04:06:40.379Z,21.17
2018-12-17T04:09:07.856Z,20.67
2018-12-17T04:11:35.331Z,19.93
2018-12-17T04:14:02.824Z,21.83
2018-12-17T04:16:30.289Z,17.10
2018-12-17T04:18:57.833Z,17.33
2018-12-17T04:21:25.297Z,20.40
2018-12-17T04:23:52.785Z,17.60
2018-12-17T04:26:20.337Z,16.93
2018-12-17T04:28:47.788Z,15.30
2018-12-17T04:31:15.252Z,14.47
2018-12-17T04:33:42.740Z,17.13
2018-12-17T04:36:10.200Z,17.63
2018-12-17T04:38:37.686Z,19.73
2018-12-17T04:41:05.162Z,18.37
2018-12-17T04:43:32.619Z,15.83
2018-12-17T04:46:00.081Z,15.97
2018-12-17T04:48:27.537Z,13.90
2018-12-17T04:50:55.002Z,17.20
2018-12-17T04:53:22.541Z,14.17
2018-12-17T04:55:50.015Z,10.63
2018-12-17T04:58:17.487Z,16.43
2018-12-17T05:00:45.268Z,13.73
2018-12-17T05:03:13.128Z,13.43
2018-12-17T05:05:40.556Z,11.60
2018-12-17T05:08:07.999Z,13.57
2018-12-17T05:10:35.506Z,16.33
2018-12-17T05:13:03.068Z,14.87
2018-12-17T05:15:30.521Z,13.13
2018-12-17T05:17:58.004Z,13.40
2018-12-17T05:20:25.472Z,19.53
2018-12-17T05:22:52.925Z,17.43
2018-12-17T05:25:20.386Z,17.97
2018-12-17T05:27:47.870Z,19.27
2018-12-17T05:30:15.356Z,18.20
2018-12-17T05:32:42.810Z,22.33
2018-12-17T05:35:10.379Z,24.10
2018-12-17T05:37:37.865Z,23.97
2018-12-17T05:40:06.691Z,23.97
2018-12-17T05:42:34.156Z,32.73
2018-12-17T05:45:01.635Z,30.57
2018-12-17T05:47:29.100Z,32.53
2018-12-17T05:49:56.559Z,34.27
2018-12-17T05:52:24.036Z,35.07
2018-12-17T05:54:51.523Z,37.70
2018-12-17T05:57:18.973Z,39.17
2018-12-17T05:59:46.713Z,35.37
2018-12-17T06:02:14.213Z,42.30
2018-12-17T06:04:41.674Z,33.37
2018-12-17T06:07:09.128Z,28.03
2018-12-17T06:09:36.612Z,29.23
2018-12-17T06:12:04.138Z,32.87
2018-12-17T06:14:31.602Z,37.40
2018-12-17T06:16:59.051Z,34.37
2018-12-17T06:19:26.500Z,40.77
2018-12-17T06:21:54.070Z,38.37
2018-12-17T06:24:21.500Z,36.73
2018-12-17T06:26:48.961Z,36.07
2018-12-17T06:29:16.767Z,35.60
2018-12-17T06:31:44.219Z,36.17
2018-12-17T06:34:11.675Z,33.30
2018-12-17T06:36:39.133Z,34.43
2018-12-17T06:39:06.839Z,38.47
2018-12-17T06:41:34.328Z,35.37
2018-12-17T06:44:01.893Z,37.27
2018-12-17T06:46:29.349Z,34.57
2018-12-17T06:48:56.803Z,35.67
2018-12-17T06:51:24.496Z,32.90
2018-12-17T06:53:51.976Z,29.17
2018-12-17T06:56:19.420Z,33.77
2018-12-17T06:58:46.874Z,30.13
2018-12-17T07:01:14.335Z,30.80
2018-12-17T07:03:41.806Z,33.90
2018-12-17T07:06:09.291Z,35.30
2018-12-17T07:08:36.988Z,29.03
2018-12-17T07:11:04.474Z,32.03
2018-12-17T07:13:31.936Z,31.43
2018-12-17T07:15:59.393Z,34.57
2018-12-17T07:18:26.843Z,32.83
2018-12-17T07:20:54.296Z,30.57
2018-12-17T07:23:21.748Z,32.90
2018-12-17T07:25:49.234Z,30.90
2018-12-17T07:28:16.677Z,32.13
2018-12-17T07:30:44.128Z,31.70
2018-12-17T07:33:11.587Z,33.47
2018-12-17T07:35:39.049Z,33.80
2018-12-17T07:38:06.513Z,34.03
2018-12-17T07:40:33.993Z,39.77
2018-12-17T07:43:01.483Z,34.57
2018-12-17T07:45:28.967Z,34.60
2018-12-17T07:47:56.420Z,31.63
2018-12-17T07:50:23.872Z,34.70
2018-12-17T07:52:51.332Z,39.13
2018-12-17T07:55:18.823Z,34.27
2018-12-17T07:57:46.285Z,34.37
2018-12-17T08:00:13.900Z,49.23
2018-12-17T08:02:41.420Z,47.13
2018-12-17T08:05:09.162Z,33.67
2018-12-17T08:07:36.651Z,31.17
2018-12-17T08:10:05.194Z,35.13
2018-12-17T08:12:32.740Z,35.83
2018-12-17T08:15:00.200Z,30.83
2018-12-17T08:17:27.657Z,34.10
2018-12-17T08:19:55.342Z,34.60
2018-12-17T08:22:22.956Z,33.77
2018-12-17T08:24:50.965Z,30.93
2018-12-17T08:27:18.560Z,32.10
2018-12-17T08:29:46.049Z,30.30
2018-12-17T08:32:13.526Z,32.93
2018-12-17T08:34:40.981Z,29.73
2018-12-17T08:37:08.441Z,31.13
2018-12-17T08:39:36.256Z,28.33
2018-12-17T08:42:03.766Z,32.30
2018-12-17T08:44:31.253Z,27.03
2018-12-17T08:46:58.733Z,25.47
2018-12-17T08:49:26.202Z,30.27
2018-12-17T08:51:53.644Z,29.23
2018-12-17T08:54:21.098Z,30.00
2018-12-17T08:56:48.551Z,24.73
2018-12-17T08:59:16.019Z,23.83
2018-12-17T09:01:43.462Z,24.83
2018-12-17T09:04:10.930Z,23.20
2018-12-17T09:06:38.384Z,24.63
2018-12-17T09:09:06.314Z,27.50
2018-12-17T09:11:33.779Z,22.40
2018-12-17T09:14:01.277Z,24.30
2018-12-17T09:16:28.731Z,22.33
2018-12-17T09:18:57.395Z,24.83
2018-12-17T09:21:24.835Z,24.33
2018-12-17T09:23:52.330Z,20.67
2018-12-17T09:26:19.818Z,28.27
2018-12-17T09:28:47.287Z,25.43
2018-12-17T09:31:14.760Z,25.80
2018-12-17T09:33:42.218Z,25.87
2018-12-17T09:36:09.705Z,26.53
2018-12-17T09:38:37.200Z,27.83
2018-12-17T09:41:04.714Z,29.57
2018-12-17T09:43:32.181Z,30.33
2018-12-17T09:45:59.628Z,27.97
2018-12-17T09:48:27.085Z,32.70
2018-12-17T09:50:54.564Z,30.03
2018-12-17T09:53:22.022Z,28.40
2018-12-17T09:55:49.487Z,27.60
2018-12-17T09:58:16.938Z,26.23
2018-12-17T10:00:44.411Z,31.37
2018-12-17T10:03:11.853Z,26.03
2018-12-17T10:05:39.309Z,33.97
2018-12-17T10:08:06.765Z,31.00
2018-12-17T10:10:34.208Z,29.67
2018-12-17T10:13:01.686Z,33.87
2018-12-17T10:15:29.250Z,27.47
2018-12-17T10:17:57.010Z,27.37
2018-12-17T10:20:24.488Z,31.83
2018-12-17T10:22:51.933Z,28.57
2018-12-17T10:25:20.305Z,27.77
2018-12-17T10:27:47.753Z,26.97
2018-12-17T10:30:15.213Z,28.33
2018-12-17T10:32:42.666Z,30.30
2018-12-17T10:35:10.277Z,27.83
2018-12-17T10:37:37.765Z,26.27
2018-12-17T10:40:07.279Z,25.73
2018-12-17T10:42:34.818Z,26.10
2018-12-17T10:45:02.582Z,24.57
2018-12-17T10:47:30.101Z,30.53
2018-12-17T10:49:58.008Z,29.67
2018-12-17T10:52:25.436Z,26.70
2018-12-17T10:54:52.908Z,32.43
2018-12-17T10:57:20.444Z,28.03
2018-12-17T10:59:47.969Z,25.67
2018-12-17T11:02:17.870Z,28.57
2018-12-17T11:04:47.253Z,33.40
2018-12-17T11:07:14.702Z,29.87
2018-12-17T11:09:42.172Z,29.90
2018-12-17T11:12:09.621Z,32.70
2018-12-17T11:14:37.078Z,30.43
2018-12-17T11:17:04.604Z,34.20
2018-12-17T11:19:32.109Z,30.83
2018-12-17T11:21:59.593Z,33.23
2018-12-17T11:24:27.060Z,30.13
2018-12-17T11:26:54.697Z,33.63
2018-12-17T11:29:22.156Z,27.57
2018-12-17T11:31:49.654Z,29.33
2018-12-17T11:34:17.344Z,26.63
2018-12-17T11:36:44.852Z,28.87
2018-12-17T11:39:12.399Z,25.97
2018-12-17T11:41:39.867Z,29.17
2018-12-17T11:46:41.163Z,28.93
2018-12-17T11:49:08.614Z,31.90
2018-12-17T11:51:36.230Z,27.27
2018-12-17T11:54:03.998Z,27.23
2018-12-17T11:59:39.747Z,30.23
2018-12-17T12:02:07.223Z,34.53
2018-12-17T12:04:34.669Z,31.07
2018-12-17T12:07:02.132Z,31.03
2018-12-17T12:09:31.505Z,27.30
2018-12-17T12:11:59.088Z,27.77
2018-12-17T12:14:26.718Z,33.73
2018-12-17T12:16:54.317Z,33.77
2018-12-17T12:19:21.764Z,27.63
2018-12-17T12:21:49.271Z,32.13
2018-12-17T12:24:16.756Z,28.67
2018-12-17T12:26:44.219Z,25.97
2018-12-17T12:29:11.693Z,29.57
2018-12-17T12:31:39.156Z,31.93
2018-12-17T12:34:06.609Z,26.67
2018-12-17T12:36:34.109Z,27.07
2018-12-17T12:39:01.585Z,30.30
2018-12-17T12:41:29.063Z,26.67
2018-12-17T12:43:56.531Z,27.40
2018-12-17T12:46:23.993Z,25.17
2018-12-17T12:48:51.449Z,25.83
2018-12-17T12:51:18.908Z,25.77
2018-12-17T12:53:46.355Z,25.10
2018-12-17T12:56:13.825Z,26.27
2018-12-17T12:58:41.276Z,26.73
2018-12-17T13:01:08.735Z,23.50
2018-12-17T13:03:36.192Z,23.53
2018-12-17T13:06:03.693Z,23.20
2018-12-17T13:08:31.168Z,25.57
2018-12-17T13:10:58.781Z,28.47
2018-12-17T13:13:26.244Z,24.17
2018-12-17T13:15:53.720Z,27.67
2018-12-17T13:18:21.180Z,28.80
2018-12-17T13:20:48.877Z,26.47
2018-12-17T13:23:16.333Z,27.60
2018-12-17T13:25:44.316Z,24.37
2018-12-17T13:28:11.777Z,23.77
2018-12-17T13:30:39.240Z,25.50
2018-12-17T13:33:07.009Z,24.30
2018-12-17T13:35:34.460Z,25.97
2018-12-17T13:38:02.434Z,21.80
2018-12-17T13:40:29.865Z,23.47
2018-12-17T13:42:57.376Z,19.97
2018-12-17T13:45:24.825Z,21.50
2018-12-17T13:47:52.294Z,23.60
2018-12-17T13:50:30.066Z,24.43
2018-12-17T13:52:57.133Z,25.63
2018-12-17T13:55:24.576Z,19.97
2018-12-17T13:57:52.035Z,20.30
2018-12-17T14:00:19.597Z,22.43
2018-12-17T14:02:47.064Z,20.60
2018-12-17T14:05:14.765Z,19.60
2018-12-17T14:07:42.228Z,18.60
2018-12-17T14:10:15.457Z,16.50
2018-12-17T14:12:43.046Z,19.23
2018-12-17T14:15:10.535Z,18.70
2018-12-17T14:17:39.930Z,17.60
2018-12-17T14:20:13.400Z,19.73
2018-12-17T14:22:40.870Z,20.53
2018-12-17T14:25:08.324Z,16.90
2018-12-17T14:27:35.837Z,17.40
2018-12-17T14:30:05.657Z,18.70
2018-12-17T14:32:33.211Z,18.60
2018-12-17T14:35:00.673Z,18.60
2018-12-17T14:37:28.147Z,22.43
2018-12-17T14:39:55.608Z,22.23
2018-12-17T14:42:23.118Z,21.50
2018-12-17T14:44:50.647Z,16.77
2018-12-17T14:47:18.114Z,17.07
2018-12-17T14:49:45.610Z,16.30
2018-12-17T14:52:13.082Z,17.43
2018-12-17T14:54:40.574Z,17.13
2018-12-17T14:57:08.150Z,22.83
2018-12-17T14:59:36.012Z,27.37
2018-12-17T15:02:03.460Z,28.67
2018-12-17T15:04:31.253Z,55.80
2018-12-17T15:06:58.725Z,36.37
2018-12-17T15:09:26.180Z,25.80
2018-12-17T15:11:53.637Z,28.30
2018-12-17T15:14:21.118Z,21.17
2018-12-17T15:16:48.561Z,17.63
2018-12-17T15:19:16.030Z,13.27
2018-12-17T15:21:43.530Z,16.40
2018-12-17T15:24:11.032Z,13.07
2018-12-17T15:26:38.944Z,12.23
2018-12-17T15:29:06.482Z,11.60
2018-12-17T15:31:35.079Z,10.93
2018-12-17T15:34:02.725Z,13.13
2018-12-17T15:36:30.198Z,11.00
2018-12-17T15:38:57.655Z,17.63
2018-12-17T15:41:25.167Z,62.43
2018-12-17T15:43:52.631Z,14.70
2018-12-17T15:46:20.085Z,13.40
2018-12-17T15:48:47.588Z,11.57
2018-12-17T15:51:15.049Z,12.07
2018-12-17T15:53:42.843Z,11.30
2018-12-17T15:56:10.310Z,11.73
2018-12-17T15:58:37.754Z,9.67
2018-12-17T16:01:05.649Z,12.87
2018-12-17T16:03:33.096Z,16.63
2018-12-17T16:06:00.534Z,14.33
2018-12-17T16:08:28.126Z,15.73
2018-12-17T16:10:56.105Z,14.57
2018-12-17T16:13:23.919Z,13.60
2018-12-17T16:15:51.378Z,13.37
2018-12-17T16:18:18.841Z,12.70
2018-12-17T16:20:46.321Z,11.70
2018-12-17T16:23:13.822Z,13.87
2018-12-17T16:25:41.337Z,13.13
2018-12-17T16:28:08.798Z,28.83
2018-12-17T16:30:36.276Z,21.83
2018-12-17T16:33:04.604Z,38.30
2018-12-17T16:35:32.208Z,31.20
2018-12-17T16:37:59.824Z,26.23
2018-12-17T16:40:27.510Z,16.97
2018-12-17T16:42:54.944Z,16.03
2018-12-17T16:45:22.444Z,18.43
2018-12-17T16:47:49.893Z,19.77
2018-12-17T16:50:17.396Z,17.70
2018-12-17T16:52:44.848Z,14.90
2018-12-17T16:55:12.680Z,21.53
2018-12-17T16:57:40.136Z,23.27
2018-12-17T17:00:09.766Z,25.20
2018-12-17T17:02:37.258Z,28.70
2018-12-17T17:05:05.383Z,26.07
2018-12-17T17:07:32.886Z,23.50
2018-12-17T17:10:04.700Z,27.00
2018-12-17T17:12:32.193Z,25.13
2018-12-17T17:14:59.686Z,29.47
2018-12-17T17:17:27.375Z,22.67
2018-12-17T17:19:54.849Z,24.03
2018-12-17T17:22:22.667Z,24.50
2018-12-17T17:24:50.154Z,17.63
2018-12-17T17:27:17.615Z,27.30
2018-12-17T17:29:45.075Z,30.63
2018-12-17T17:32:12.520Z,24.27
2018-12-17T17:34:40.345Z,19.47
2018-12-17T17:37:07.845Z,17.13
2018-12-17T17:39:35.310Z,17.30
2018-12-17T17:42:02.804Z,15.50
2018-12-17T17:44:30.302Z,16.90
2018-12-17T17:46:57.776Z,15.07
2018-12-17T17:49:25.245Z,13.40
2018-12-17T17:51:53.018Z,15.50
2018-12-17T17:54:20.476Z,16.53
2018-12-17T17:56:47.949Z,17.77
2018-12-17T17:59:15.416Z,12.43
2018-12-17T18:01:43.224Z,13.30
2018-12-17T18:04:10.838Z,12.60
2018-12-17T18:06:38.301Z,14.50
2018-12-17T18:09:07.746Z,15.00
2018-12-17T18:11:35.252Z,12.90
2018-12-17T18:14:02.708Z,13.30
2018-12-17T18:16:30.170Z,14.30
2018-12-17T18:18:57.647Z,14.10
2018-12-17T18:21:25.118Z,13.20
2018-12-17T18:23:52.579Z,12.67
2018-12-17T18:26:20.045Z,12.07
2018-12-17T18:28:47.501Z,15.40
2018-12-17T18:31:14.968Z,14.57
2018-12-17T18:33:42.412Z,13.43
2018-12-17T18:36:09.890Z,13.00
2018-12-17T18:38:37.433Z,13.93
2018-12-17T18:41:04.942Z,12.20
2018-12-17T18:43:32.406Z,14.17
2018-12-17T18:46:00.052Z,10.57
2018-12-17T18:48:27.832Z,12.50
2018-12-17T18:50:55.378Z,13.70
2018-12-17T18:53:23.068Z,11.93
2018-12-17T18:55:50.548Z,13.83
2018-12-17T18:58:17.997Z,12.77
2018-12-17T19:00:45.457Z,13.20
2018-12-17T19:03:12.901Z,10.10
2018-12-17T19:05:40.356Z,11.53
2018-12-17T19:08:07.800Z,10.40
2018-12-17T19:10:53.985Z,13.33
2018-12-17T19:13:21.432Z,10.90
2018-12-17T19:15:48.933Z,11.40
2018-12-17T19:18:16.604Z,13.27
2018-12-17T19:20:44.067Z,15.23
2018-12-17T19:23:11.519Z,16.23
2018-12-17T19:25:39.944Z,16.10
2018-12-17T19:28:07.419Z,14.63
2018-12-17T19:30:35.253Z,10.60
2018-12-17T19:33:02.735Z,10.77
2018-12-17T19:35:30.225Z,13.67
2018-12-17T19:37:57.680Z,11.93
2018-12-17T19:40:25.177Z,13.60
2018-12-17T19:42:52.680Z,14.57
2018-12-17T19:45:20.142Z,13.77
2018-12-17T19:47:47.621Z,11.70
2018-12-17T19:50:15.095Z,8.97
2018-12-17T19:52:42.563Z,13.43
2018-12-17T19:55:10.020Z,12.97
2018-12-17T19:57:37.478Z,12.90
2018-12-17T20:00:07.490Z,17.03
2018-12-17T20:02:34.986Z,14.57
2018-12-17T20:05:02.438Z,11.50
2018-12-17T20:07:29.888Z,13.63
2018-12-17T20:09:57.352Z,14.07
2018-12-17T20:12:25.068Z,13.37
2018-12-17T20:14:52.595Z,13.53
2018-12-17T20:17:20.076Z,11.33
2018-12-17T20:19:47.974Z,10.77
2018-12-17T20:22:15.436Z,11.37
2018-12-17T20:24:42.899Z,12.07
2018-12-17T20:27:10.364Z,11.73
2018-12-17T20:29:37.834Z,13.77
2018-12-17T20:32:05.293Z,12.30
2018-12-17T20:34:32.758Z,13.00
2018-12-17T20:37:00.257Z,12.07
2018-12-17T20:39:27.702Z,12.63
2018-12-17T20:41:55.183Z,12.27
2018-12-17T20:44:22.644Z,16.17
2018-12-17T20:46:50.089Z,12.03
2018-12-17T20:49:17.547Z,15.53
2018-12-17T20:51:45.009Z,10.37
2018-12-17T20:54:12.449Z,10.10
2018-12-17T20:56:39.916Z,13.23
2018-12-17T20:59:07.365Z,8.97
2018-12-17T21:01:34.840Z,12.87
2018-12-17T21:04:02.338Z,9.30
2018-12-17T21:06:29.800Z,10.07
2018-12-17T21:08:57.265Z,10.20
2018-12-17T21:11:24.737Z,12.87
2018-12-17T21:13:52.196Z,9.40
2018-12-17T21:16:19.665Z,12.67
2018-12-17T21:18:47.163Z,10.63
2018-12-17T21:21:14.638Z,10.83
2018-12-17T21:23:42.140Z,13.53
2018-12-17T21:26:09.635Z,11.47
2018-12-17T21:28:37.100Z,14.97
2018-12-17T21:31:04.585Z,17.40
2018-12-17T21:33:32.093Z,14.30
2018-12-17T21:35:59.587Z,14.80
2018-12-17T21:38:27.104Z,12.73
2018-12-17T21:40:54.571Z,16.63
2018-12-17T21:43:22.040Z,13.37
2018-12-17T21:45:49.511Z,10.67
2018-12-17T21:48:16.998Z,10.07
2018-12-17T21:50:44.499Z,11.07
2018-12-17T21:53:11.954Z,12.97
2018-12-17T21:55:39.463Z,11.80
2018-12-17T21:58:06.925Z,10.77
2018-12-17T22:00:34.377Z,14.10
2018-12-17T22:03:01.842Z,10.13
2018-12-17T22:05:29.293Z,12.53
2018-12-17T22:07:56.784Z,10.30
2018-12-17T22:10:25.205Z,9.80
2018-12-17T22:12:52.925Z,11.07
2018-12-17T22:15:20.648Z,13.60
2018-12-17T22:17:48.405Z,10.47
2018-12-17T22:20:16.274Z,11.40
2018-12-17T22:22:43.735Z,11.30
2018-12-17T22:25:11.208Z,13.60
2018-12-17T22:27:38.671Z,10.63
2018-12-17T22:30:07.391Z,11.30
2018-12-17T22:32:34.848Z,11.07
2018-12-17T22:35:02.305Z,11.50
2018-12-17T22:37:29.765Z,10.60
2018-12-17T22:39:57.230Z,11.97
2018-12-17T22:42:24.705Z,11.47
2018-12-17T22:44:52.194Z,9.37
2018-12-17T22:47:20.607Z,10.73
2018-12-17T22:49:48.056Z,11.47
2018-12-17T22:52:15.512Z,11.90
2018-12-17T22:54:42.953Z,12.60
2018-12-17T22:57:10.416Z,11.00
2018-12-17T22:59:37.870Z,10.03
2018-12-17T23:02:05.339Z,12.97
2018-12-17T23:04:33.050Z,10.47
2018-12-17T23:07:00.508Z,11.13
2018-12-17T23:09:39.935Z,9.97
2018-12-17T23:12:19.932Z,11.57
2018-12-17T23:14:59.352Z,8.73
2018-12-17T23:17:38.937Z,11.97
2018-12-17T23:20:07.770Z,13.90
2018-12-17T23:22:36.589Z,12.10
2018-12-17T23:25:04.599Z,10.93
2018-12-17T23:27:32.125Z,9.53
2018-12-17T23:30:00.111Z,11.60
2018-12-17T23:32:31.430Z,9.97
2018-12-17T23:34:58.878Z,10.60
2018-12-17T23:37:26.340Z,12.13
2018-12-17T23:39:53.821Z,9.87
2018-12-17T23:42:21.285Z,9.80
2018-12-17T23:44:48.765Z,11.97
2018-12-17T23:47:16.237Z,15.50
2018-12-17T23:49:43.712Z,14.03
2018-12-17T23:52:11.422Z,14.30
2018-12-17T23:54:38.893Z,14.50
2018-12-17T23:57:06.436Z,14.77
2018-12-17T23:59:33.902Z,13.43
